Time;durP1;ratioP1;P1;durP2;ratioP2;P2;SDS_P1;SDS_P2;PMS_P1;PMS_P2;Temp;Humidity;BMP_temperature;BMP_pressure;BME280_temperature;BME280_humidity;BME280_pressure;Samples;Min_cycle;Max_cycle;Signal;HPM_P1;HPM_P2
2021/04/04 00:00:20;;;;;;;50.33;31.80;;;;;;;;;;4992532;28;20113;-70
2021/04/04 00:02:46;;;;;;;45.05;34.97;;;;;;;;;;4992613;28;20037;-70
2021/04/04 00:05:12;;;;;;;37.45;25.10;;;;;;;;;;4992361;28;20089;-71
2021/04/04 00:07:41;;;;;;;36.45;24.42;;;;;;;;;;4992421;28;20037;-70
2021/04/04 00:10:09;;;;;;;35.08;25.02;;;;;;;;;;4992378;28;20022;-70
2021/04/04 00:12:35;;;;;;;39.45;28.77;;;;;;;;;;4992431;28;20034;-71
2021/04/04 00:15:02;;;;;;;42.70;30.15;;;;;;;;;;4981486;28;20106;-71
2021/04/04 00:17:28;;;;;;;39.60;26.95;;;;;;;;;;4989773;28;20489;-71
2021/04/04 00:19:54;;;;;;;35.92;21.77;;;;;;;;;;4992541;28;20035;-70
2021/04/04 00:22:20;;;;;;;43.70;26.20;;;;;;;;;;4992253;28;20455;-71
2021/04/04 00:24:46;;;;;;;31.23;20.27;;;;;;;;;;4992358;28;20022;-70
2021/04/04 00:27:12;;;;;;;43.60;30.08;;;;;;;;;;4992154;28;20481;-71
2021/04/04 00:29:38;;;;;;;31.77;22.75;;;231.10;1689.60;;;;;;4993204;28;20057;-71
2021/04/04 00:32:04;;;;;;;27.80;19.27;;;231.30;1689.60;;;;;;4995952;28;20445;-70
2021/04/04 00:34:30;;;;;;;26.58;19.23;;;256.00;1638.40;;;;;;4995673;28;20113;-71
2021/04/04 00:36:55;;;;;;;23.60;15.43;;;256.10;1664.00;;;;;;4995897;28;20054;-71
2021/04/04 00:39:21;;;;;;;25.65;17.45;;;256.20;1612.80;;;;;;4995487;28;20022;-71
2021/04/04 00:41:47;;;;;;;27.27;17.77;;;256.40;1612.80;;;;;;4995660;28;20050;-70
2021/04/04 00:44:13;;;;;;;28.25;17.85;;;256.50;1587.20;;;;;;4995841;28;20026;-71
2021/04/04 00:46:39;;;;;;;32.03;20.15;;;256.40;1587.20;;;;;;4995640;28;20123;-71
2021/04/04 00:49:05;;;;;;;28.85;18.50;;;256.40;1587.20;;;;;;4995591;28;20023;-70
2021/04/04 00:51:35;;;;;;;31.42;18.65;;;256.30;1612.80;;;;;;4995869;28;20022;-72
2021/04/04 00:54:01;;;;;;;31.55;18.90;;;256.40;1587.20;;;;;;4995377;28;20031;-72
2021/04/04 00:56:28;;;;;;;34.50;20.42;;;256.40;1587.20;;;;;;4995303;28;20109;-71
2021/04/04 00:58:54;;;;;;;40.63;23.10;;;256.40;1587.20;;;;;;4995465;28;20030;-72
2021/04/04 01:01:21;;;;;;;55.55;33.33;;;256.30;1638.40;;;;;;4995334;28;20034;-71
2021/04/04 01:03:48;;;;;;;52.67;33.72;;;256.40;1638.40;;;;;;4995257;28;20034;-71
2021/04/04 01:06:14;;;;;;;61.88;40.17;;;256.30;1612.80;;;;;;4995270;28;20026;-72
2021/04/04 01:08:40;;;;;;;72.85;45.50;;;256.20;1638.40;;;;;;4981287;28;20158;-71
2021/04/04 01:11:08;;;;;;;121.75;73.93;;;256.30;1612.80;;;;;;4995325;28;20026;-71
2021/04/04 01:13:58;;;;;;;80.78;48.83;;;256.10;1638.40;;;;;;4982099;28;20037;-70
2021/04/04 01:16:37;;;;;;;45.33;27.42;;;256.20;1638.40;;;;;;4975465;28;20133;-69
2021/04/04 01:19:42;;;;;;;45.70;29.35;;;256.30;1587.20;;;;;;4991631;28;20473;-68
2021/04/04 01:22:11;;;;;;;34.83;21.30;;;256.20;1612.80;;;;;;4995056;28;20026;-68
2021/04/04 01:24:53;;;;;;;49.20;29.27;;;256.30;1587.20;;;;;;4994868;28;20070;-68
2021/04/04 01:27:38;;;;;;;35.08;21.65;;;256.40;1587.20;;;;;;4994762;28;20038;-66
2021/04/04 01:30:07;;;;;;;38.15;22.95;;;256.30;1612.80;;;;;;4994826;28;20023;-65
2021/04/04 01:32:35;;;;;;;53.17;33.95;;;256.20;1612.80;;;;;;4994773;28;20058;-66
2021/04/04 01:35:04;;;;;;;84.90;70.03;;;256.30;1612.80;;;;;;4992866;28;20126;-65
2021/04/04 01:37:31;;;;;;;50.17;40.70;;;256.20;1612.80;;;;;;4994638;28;20025;-65
2021/04/04 01:39:59;;;;;;;41.05;33.03;;;256.00;1612.80;;;;;;4994493;28;20035;-66
2021/04/04 01:42:25;;;;;;;28.65;18.83;;;231.20;1638.40;;;;;;4993424;28;20034;-68
2021/04/04 01:44:52;;;;;;;20.55;15.10;;;231.20;1638.40;;;;;;4994444;28;20026;-73
2021/04/04 01:47:19;;;;;;;20.75;14.23;;;231.30;1612.80;;;;;;4994558;28;20513;-74
2021/04/04 01:49:48;;;;;;;17.88;12.18;;;231.20;1638.40;;;;;;4994613;28;20128;-75
2021/04/04 01:52:15;;;;;;;13.00;10.07;;;231.10;1638.40;;;;;;4994481;28;20018;-74
2021/04/04 01:54:42;;;;;;;13.00;9.05;;;230.90;1638.40;;;;;;4994292;28;20030;-75
2021/04/04 01:57:09;;;;;;;14.23;10.13;;;231.10;1638.40;;;;;;4994129;28;20057;-74
2021/04/04 01:59:36;;;;;;;14.95;10.82;;;231.10;1664.00;;;;;;4994430;28;20023;-76
2021/04/04 02:02:05;;;;;;;18.45;11.02;;;231.10;1638.40;;;;;;4994248;28;20022;-73
2021/04/04 02:04:32;;;;;;;18.27;9.30;;;231.10;1664.00;;;;;;4985826;28;20429;-73
2021/04/04 02:06:58;;;;;;;15.77;12.35;;;256.00;1638.40;;;;;;4972000;28;20373;-70
2021/04/04 02:09:25;;;;;;;13.88;11.55;;;256.20;1612.80;;;;;;4993884;28;20429;-72
2021/04/04 02:11:53;;;;;;;11.73;9.90;;;231.30;1587.20;;;;;;4994030;28;20024;-71
2021/04/04 02:14:23;;;;;;;23.13;19.15;;;231.30;1587.20;;;;;;4994010;28;20173;-72
2021/04/04 02:16:53;;;;;;;41.70;29.23;;;231.10;1612.80;;;;;;4993836;28;20039;-72
2021/04/04 02:19:22;;;;;;;46.70;32.15;;;231.20;1612.80;;;;;;4989381;28;20038;-71
2021/04/04 02:21:51;;;;;;;43.97;30.10;;;231.00;1664.00;;;;;;4985385;28;20022;-70
2021/04/04 02:24:18;;;;;;;36.38;22.85;;;231.20;1612.80;;;;;;4993929;28;20452;-69
2021/04/04 02:26:45;;;;;;;55.30;34.70;;;231.20;1638.40;;;;;;4984099;28;20081;-69
2021/04/04 02:29:11;;;;;;;64.07;42.70;;;256.10;1612.80;;;;;;4989708;28;20031;-70
2021/04/04 02:31:41;;;;;;;40.78;27.45;;;256.20;1587.20;;;;;;4993816;28;20018;-69
2021/04/04 02:34:10;;;;;;;33.08;22.45;;;256.20;1587.20;;;;;;4993853;28;20504;-69
2021/04/04 02:36:40;;;;;;;38.67;24.50;;;256.30;1561.60;;;;;;4993651;28;20080;-69
2021/04/04 02:39:38;;;;;;;25.05;17.20;;;256.40;1561.60;;;;;;4993460;28;20153;-69
2021/04/04 02:42:05;;;;;;;33.85;22.90;;;256.10;1561.60;;;;;;4980728;28;20037;-69
2021/04/04 02:44:32;;;;;;;21.08;15.25;;;256.20;1561.60;;;;;;4993547;28;20038;-69
2021/04/04 02:47:07;;;;;;;25.02;18.63;;;256.30;1536.00;;;;;;4993566;28;20019;-75
2021/04/04 02:49:35;;;;;;;22.63;16.65;;;256.20;1561.60;;;;;;4993656;28;20049;-74
2021/04/04 02:52:07;;;;;;;31.88;21.40;;;256.20;1587.20;;;;;;4993305;28;20050;-74
2021/04/04 02:54:36;;;;;;;45.83;29.75;;;256.30;1561.60;;;;;;4993290;28;20038;-71
2021/04/04 02:57:02;;;;;;;36.60;23.85;;;;;;;;;;4993106;28;20026;-71
2021/04/04 02:59:36;;;;;;;28.65;17.52;;;256.50;1484.80;;;;;;4993331;28;20034;-70
2021/04/04 03:02:05;;;;;;;44.40;31.40;;;256.60;1484.80;;;;;;4993115;28;20023;-70
2021/04/04 03:04:34;;;;;;;27.77;17.55;;;256.70;1510.40;;;;;;4993189;28;20097;-69
2021/04/04 03:07:01;;;;;;;52.08;32.33;;;256.60;1510.40;;;;;;4993377;28;20409;-69
2021/04/04 03:09:29;;;;;;;38.80;24.75;;;256.70;1484.80;;;;;;4992919;28;20034;-68
2021/04/04 03:11:56;;;;;;;27.10;17.15;;;256.70;1484.80;;;;;;4993352;28;20097;-70
2021/04/04 03:14:23;;;;;;;22.05;13.35;;;256.40;1536.00;;;;;;4979470;28;20030;-68
2021/04/04 03:16:50;;;;;;;22.50;13.75;;;256.50;1510.40;;;;;;4992953;28;20061;-68
2021/04/04 03:19:17;;;;;;;23.52;15.20;;;256.50;1510.40;;;;;;4992953;28;20030;-70
2021/04/04 03:21:45;;;;;;;20.15;11.43;;;256.50;1510.40;;;;;;4993038;28;20054;-68
2021/04/04 03:24:13;;;;;;;23.42;14.88;;;256.30;1561.60;;;;;;4992845;28;20019;-68
2021/04/04 03:26:39;;;;;;;21.85;13.40;;;256.50;1536.00;;;;;;4992853;28;20077;-68
2021/04/04 03:29:07;;;;;;;17.08;10.18;;;256.20;1561.60;;;;;;4992965;28;20058;-68
2021/04/04 03:31:34;;;;;;;26.60;16.73;;;256.10;1561.60;;;;;;4992835;28;20026;-69
2021/04/04 03:34:00;;;;;;;12.40;8.43;;;256.20;1561.60;;;;;;4992775;28;20061;-71
2021/04/04 03:36:27;;;;;;;19.90;11.95;;;231.30;1561.60;;;;;;4992850;28;20034;-70
2021/04/04 03:38:55;;;;;;;14.18;9.35;;;256.40;1561.60;;;;;;4992616;28;20026;-70
2021/04/04 03:41:26;;;;;;;26.50;18.50;;;256.40;1536.00;;;;;;4992777;28;20493;-71
2021/04/04 03:43:52;;;;;;;16.73;11.40;;;256.20;1587.20;;;;;;4993106;28;20018;-72
2021/04/04 03:46:23;;;;;;;13.00;9.35;;;256.30;1561.60;;;;;;4991530;28;20052;-71
2021/04/04 03:48:50;;;;;;;11.52;7.75;;;256.20;1561.60;;;;;;4992565;28;20024;-72
2021/04/04 03:51:17;;;;;;;14.73;8.88;;;256.20;1561.60;;;;;;4992738;28;20054;-72
2021/04/04 03:53:44;;;;;;;16.25;11.05;;;256.10;1587.20;;;;;;4992559;28;20029;-71
2021/04/04 03:56:19;;;;;;;17.23;10.52;;;256.00;1587.20;;;;;;4992554;28;20030;-72
2021/04/04 03:58:46;;;;;;;15.25;11.82;;;256.00;1587.20;;;;;;4992782;28;20472;-71
2021/04/04 04:01:13;;;;;;;16.75;12.60;;;256.30;1587.20;;;;;;4992583;28;20081;-73
2021/04/04 04:03:39;;;;;;;14.18;11.32;;;256.30;1587.20;;;;;;4992649;28;20033;-70
2021/04/04 04:06:09;;;;;;;18.25;12.95;;;256.30;1561.60;;;;;;4996113;28;20023;-71
2021/04/04 04:08:37;;;;;;;21.23;14.52;;;256.40;1561.60;;;;;;4982761;28;20544;-71
2021/04/04 04:11:04;;;;;;;22.13;14.00;;;256.40;1561.60;;;;;;4996227;28;20026;-70
2021/04/04 04:13:31;;;;;;;18.15;11.38;;;256.30;1561.60;;;;;;4996272;28;20511;-71
2021/04/04 04:15:58;;;;;;;29.83;16.25;;;256.20;1587.20;;;;;;4995909;28;20038;-71
2021/04/04 04:18:25;;;;;;;27.77;17.25;;;256.20;1561.60;;;;;;4996313;28;20069;-73
2021/04/04 04:20:51;;;;;;;46.20;25.23;;;256.20;1587.20;;;;;;4996191;28;20026;-73
2021/04/04 04:23:17;;;;;;;45.17;24.58;;;256.20;1587.20;;;;;;4996177;28;20023;-73
2021/04/04 04:25:45;;;;;;;37.55;22.25;;;256.20;1561.60;;;;;;4996060;28;20022;-73
2021/04/04 04:28:11;;;;;;;32.17;20.63;;;256.00;1612.80;;;;;;4996217;28;20105;-73
2021/04/04 04:30:38;;;;;;;35.17;21.30;;;256.00;1612.80;;;;;;4996087;28;20469;-73
2021/04/04 04:33:07;;;;;;;19.73;12.88;;;256.00;1612.80;;;;;;4996092;28;20026;-73
2021/04/04 04:35:33;;;;;;;27.27;17.48;;;256.00;1612.80;;;;;;4996035;28;20149;-72
2021/04/04 04:38:00;;;;;;;26.90;17.48;;;231.10;1664.00;;;;;;4991814;28;20022;-72
2021/04/04 04:40:27;;;;;;;31.75;19.05;;;231.00;1664.00;;;;;;4976365;28;20037;-69
2021/04/04 04:42:55;;;;;;;14.80;10.68;;;231.30;1612.80;;;;;;4992666;28;20157;-70
2021/04/04 04:45:31;;;;;;;29.90;19.10;;;231.30;1612.80;;;;;;4995551;28;20377;-72
2021/04/04 04:47:57;;;;;;;25.60;15.30;;;231.30;1638.40;;;;;;4995747;28;20460;-70
2021/04/04 04:50:24;;;;;;;43.63;25.38;;;256.00;1612.80;;;;;;4995669;28;20034;-70
2021/04/04 04:52:50;;;;;;;24.27;12.20;;;256.00;1612.80;;;;;;4995675;28;20085;-71
2021/04/04 04:55:20;;;;;;;27.75;17.20;;;256.00;1638.40;;;;;;4995702;28;20053;-70
2021/04/04 04:57:47;;;;;;;44.08;27.75;;;256.10;1638.40;;;;;;4986323;28;20118;-70
2021/04/04 05:00:14;;;;;;;75.50;49.47;;;256.20;1612.80;;;;;;4991116;28;20113;-70
2021/04/04 05:02:41;;;;;;;44.60;28.33;;;256.20;1612.80;;;;;;4995510;28;20076;-69
2021/04/04 05:05:10;;;;;;;25.30;19.90;;;256.30;1587.20;;;;;;4995446;28;20034;-69
2021/04/04 05:07:40;;;;;;;24.38;14.32;;;256.30;1587.20;;;;;;4993841;28;20484;-70
2021/04/04 05:10:11;;;;;;;26.13;17.00;;;256.00;1612.80;;;;;;4995041;28;20117;-69
2021/04/04 05:12:43;;;;;;;26.52;15.68;;;231.30;1638.40;;;;;;4995123;28;20022;-70
2021/04/04 05:15:10;;;;;;;28.88;19.35;;;231.20;1664.00;;;;;;4994833;28;20034;-70
2021/04/04 05:17:40;;;;;;;27.83;19.15;;;;;;;;;;4994875;28;20126;-70
2021/04/04 05:20:08;;;;;;;22.27;17.42;;;230.90;1638.40;;;;;;4995085;28;20062;-69
2021/04/04 05:22:38;;;;;;;19.77;11.85;;;231.00;1638.40;;;;;;4994994;28;20430;-69
2021/04/04 05:25:06;;;;;;;15.88;11.43;;;230.80;1689.60;;;;;;4993672;28;20022;-69
2021/04/04 05:27:32;;;;;;;32.97;21.02;;;230.70;1715.20;;;;;;4994911;28;20030;-70
2021/04/04 05:30:02;;;;;;;25.45;18.63;;;;;;;;;;4995104;28;20488;-70
2021/04/04 05:32:28;;;;;;;19.30;11.50;;;;;;;;;;4994784;28;20032;-73
2021/04/04 05:34:54;;;;;;;18.48;12.18;;;;;;;;;;4994810;28;20133;-71
2021/04/04 05:37:20;;;;;;;20.10;13.55;;;230.60;1715.20;;;;;;4994804;28;20042;-70
2021/04/04 05:39:45;;;;;;;14.68;10.63;;;230.50;1715.20;;;;;;4994454;28;20034;-70
2021/04/04 05:42:12;;;;;;;15.02;9.25;;;230.70;1689.60;;;;;;4994949;28;20077;-70
2021/04/04 05:45:02;;;;;;;22.42;13.75;;;230.40;1740.80;;;;;;4994677;28;20053;-70
2021/04/04 05:47:49;;;;;;;24.15;14.88;;;230.80;1689.60;;;;;;4994636;28;20033;-70
2021/04/04 05:50:21;;;;;;;15.95;11.02;;;231.10;1664.00;;;;;;4994705;28;20351;-69
2021/04/04 05:53:05;;;;;;;20.25;14.00;;;230.80;1715.20;;;;;;4994568;28;20030;-69
2021/04/04 05:55:42;;;;;;;27.40;20.73;;;230.90;1689.60;;;;;;4994178;28;20125;-69
2021/04/04 05:58:15;;;;;;;35.13;28.88;;;231.10;1664.00;;;;;;4976947;28;20028;-68
2021/04/04 06:00:48;;;;;;;23.17;18.05;;;231.30;1638.40;;;;;;4994338;28;20019;-69
2021/04/04 06:03:35;;;;;;;26.13;17.20;;;230.80;1689.60;;;;;;4994677;28;20381;-71
2021/04/04 06:06:16;;;;;;;21.33;14.52;;;230.60;1766.40;;;;;;4994271;28;20022;-71
2021/04/04 06:08:53;;;;;;;24.23;16.63;;;230.90;1715.20;;;;;;4994225;28;20389;-68
2021/04/04 06:11:41;;;;;;;32.28;18.02;;;230.60;1740.80;;;;;;4993972;28;20038;-68
2021/04/04 06:14:17;;;;;;;28.25;15.55;;;231.20;1689.60;;;;;;4993944;28;20173;-70
2021/04/04 06:16:57;;;;;;;25.40;16.85;;;231.10;1689.60;;;;;;4993909;28;20054;-70
2021/04/04 06:19:55;;;;;;;23.17;12.13;;;231.10;1715.20;;;;;;4993797;28;20030;-71
2021/04/04 06:22:43;;;;;;;14.32;10.18;;;231.20;1664.00;;;;;;4993837;28;20026;-70
2021/04/04 06:25:18;;;;;;;61.90;33.90;;;231.00;1715.20;;;;;;4993916;28;20018;-70
2021/04/04 06:27:51;;;;;;;66.78;38.15;;;256.00;1638.40;;;;;;4993111;28;20097;-69
2021/04/04 06:30:51;;;;;;;67.43;43.08;;;256.10;1638.40;;;;;;4993785;28;20048;-71
2021/04/04 06:33:30;;;;;;;32.25;23.70;;;256.50;1638.40;;;;;;4979721;28;20097;-71
2021/04/04 06:36:05;;;;;;;124.18;81.82;;;;;;;;;;4993517;28;20521;-72
2021/04/04 06:38:38;;;;;;;89.53;60.97;;;;;;;;;;4985182;28;20061;-72
2021/04/04 06:41:22;;;;;;;42.92;30.10;;;;;;;;;;4989184;28;20104;-72
2021/04/04 06:44:02;;;;;;;91.40;67.78;;;256.70;1612.80;;;;;;4980277;28;20018;-70
2021/04/04 06:46:43;;;;;;;53.95;36.85;;;;;;;;;;4993424;28;20023;-71
2021/04/04 06:49:09;;;;;;;29.35;19.83;;;;;;;;;;4993264;28;20030;-74
2021/04/04 06:51:35;;;;;;;31.10;24.35;;;;;;;;;;4993207;28;20029;-74
2021/04/04 06:54:08;;;;;;;31.63;20.00;;;;;;;;;;4993477;28;20053;-75
2021/04/04 06:56:37;;;;;;;43.47;27.65;;;;;;;;;;4993509;28;20033;-76
2021/04/04 06:59:08;;;;;;;32.88;23.20;;;;;;;;;;4993356;28;20024;-70
2021/04/04 07:01:40;;;;;;;40.38;31.85;;;;;;;;;;4993284;28;20026;-71
2021/04/04 07:04:09;;;;;;;28.75;21.30;;;;;;;;;;4993065;28;20029;-71
2021/04/04 07:06:44;;;;;;;26.48;18.75;;;;;;;;;;4993246;28;20442;-71
2021/04/04 07:09:29;;;;;;;23.05;16.77;;;;;;;;;;4979002;28;20104;-71
2021/04/04 07:12:14;;;;;;;30.77;23.02;;;;;;;;;;4993001;28;20038;-71
2021/04/04 07:14:52;;;;;;;30.02;23.05;;;;;;;;;;4993077;28;20066;-71
2021/04/04 07:17:30;;;;;;;24.60;18.48;;;;;;;;;;4992619;28;20042;-69
2021/04/04 07:20:04;;;;;;;30.52;24.55;;;;;;;;;;4993055;28;20034;-73
2021/04/04 07:22:53;;;;;;;27.38;20.75;;;;;;;;;;4972777;28;20041;-72
2021/04/04 07:25:26;;;;;;;28.40;20.95;;;;;;;;;;4906422;29;20050;-72
2021/04/04 07:28:10;;;;;;;38.60;24.98;;;;;;;;;;4913804;29;20090;-71
2021/04/04 07:30:46;;;;;;;36.15;25.73;;;;;;;;;;4914104;29;20278;-71
2021/04/04 07:33:30;;;;;;;31.80;23.10;;;;;;;;;;4895060;29;20024;-71
2021/04/04 07:35:56;;;;;;;36.40;25.52;;;;;;;;;;4909490;29;20403;-71
2021/04/04 07:38:48;;;;;;;32.58;24.08;;;;;;;;;;4907399;29;20527;-72
2021/04/04 07:41:14;;;;;;;;;;;;;;;;;;4914864;29;20055;-71
2021/04/04 07:44:00;;;;;;;29.52;21.63;;;;;;;;;;4917804;29;19942;-72
2021/04/04 07:46:32;;;;;;;31.27;22.00;;;;;;;;;;4917927;29;20081;-71
2021/04/04 07:49:13;;;;;;;34.03;24.45;;;;;;;;;;4911093;29;20037;-71
2021/04/04 07:51:40;;;;;;;26.77;19.23;;;;;;;;;;4896941;29;20040;-70
2021/04/04 07:54:15;;;;;;;30.77;23.75;;;;;;;;;;4917598;29;20063;-70
2021/04/04 07:56:56;;;;;;;39.28;25.65;;;;;;;;;;4917421;29;20492;-70
2021/04/04 07:59:29;;;;;;;39.22;28.60;;;;;;;;;;4909376;29;20077;-70
2021/04/04 08:01:55;;;;;;;40.38;30.73;;;;;;;;;;4933682;28;20046;-71
2021/04/04 08:04:33;;;;;;;41.53;29.88;;;;;;;;;;4984252;28;20092;-70
2021/04/04 08:07:11;;;;;;;31.13;20.48;;;;;;;;;;4996051;28;20022;-71
2021/04/04 08:09:45;;;;;;;42.20;30.33;;;;;;;;;;4996153;28;20042;-71
2021/04/04 08:12:11;;;;;;;29.30;20.98;;;;;;;;;;4996170;28;20153;-70
2021/04/04 08:14:47;;;;;;;27.23;20.23;;;;;;;;;;4996171;28;20513;-70
2021/04/04 08:17:13;;;;;;;30.08;21.08;;;;;;;;;;4995984;28;20053;-72
2021/04/04 08:19:42;;;;;;;35.40;24.48;;;;;;;;;;4996123;28;20030;-71
2021/04/04 08:22:14;;;;;;;24.98;18.52;;;;;;;;;;4996085;28;20038;-71
2021/04/04 08:24:40;;;;;;;;;;;;;;;;;;4996590;28;20448;-72
2021/04/04 08:27:25;;;;;;;30.73;19.85;;;;;;;;;;4996052;28;19905;-72
2021/04/04 08:29:54;;;;;;;32.03;20.73;;;;;;;;;;4996122;28;20065;-71
2021/04/04 08:32:26;;;;;;;31.20;21.38;;;;;;;;;;4995935;28;20053;-72
2021/04/04 08:34:56;;;;;;;34.55;24.02;;;;;;;;;;4989398;28;20039;-71
2021/04/04 08:37:24;;;;;;;28.13;19.30;;;;;;;;;;4989441;28;20038;-71
2021/04/04 08:39:55;;;;;;;24.02;17.73;;;;;;;;;;4990214;28;20038;-72
2021/04/04 08:42:22;;;;;;;26.02;17.80;;;;;;;;;;4988293;28;20033;-72
2021/04/04 08:45:03;;;;;;;33.42;23.52;;;;;;;;;;4995490;28;20041;-72
2021/04/04 08:47:33;;;;;;;30.75;21.27;;;;;;;;;;4995801;28;20018;-72
2021/04/04 08:50:00;;;;;;;36.25;23.23;;;;;;;;;;4977357;28;20061;-72
2021/04/04 08:52:29;;;;;;;37.72;26.92;;;;;;;;;;4995606;28;20078;-72
2021/04/04 08:54:56;;;;;;;31.38;20.95;;;;;;;;;;4995796;28;20375;-72
2021/04/04 08:57:34;;;;;;;24.85;18.02;;;;;;;;;;4995169;28;20025;-72
2021/04/04 09:00:04;;;;;;;25.73;19.17;;;;;;;;;;4995475;28;20072;-72
2021/04/04 09:02:32;;;;;;;31.52;22.98;;;;;;;;;;4995457;28;20077;-72
2021/04/04 09:05:03;;;;;;;28.60;19.13;;;;;;;;;;4995254;28;20067;-71
2021/04/04 09:07:29;;;;;;;;;;;;;;;;;;4995450;28;20114;-72
2021/04/04 09:09:55;;;;;;;39.78;26.23;;;;;;;;;;4995031;28;19984;-72
2021/04/04 09:12:22;;;;;;;33.22;22.05;;;;;;;;;;4995007;28;20030;-72
2021/04/04 09:14:48;;;;;;;31.10;21.80;;;;;;;;;;4985986;28;20084;-72
2021/04/04 09:17:18;;;;;;;32.83;23.08;;;;;;;;;;4990403;28;20043;-71
2021/04/04 09:19:46;;;;;;;28.92;20.27;;;;;;;;;;4994893;28;20037;-75
2021/04/04 09:22:18;;;;;;;38.00;25.88;;;;;;;;;;4977308;28;20066;-69
2021/04/04 09:24:44;;;;;;;51.08;34.80;;;;;;;;;;4977395;28;20023;-68
2021/04/04 09:27:14;;;;;;;46.75;31.85;;;;;;;;;;4994758;28;20105;-68
2021/04/04 09:29:40;;;;;;;61.22;40.95;;;;;;;;;;4994762;28;20062;-70
2021/04/04 09:32:11;;;;;;;50.35;33.45;;;;;;;;;;4983988;28;20023;-70
2021/04/04 09:34:37;;;;;;;87.80;53.90;;;;;;;;;;4994591;28;20591;-72
2021/04/04 09:37:03;;;;;;;76.40;47.67;;;;;;;;;;4994581;28;20019;-72
2021/04/04 09:39:30;;;;;;;74.65;46.85;;;;;;;;;;4983452;28;20429;-71
2021/04/04 09:41:58;;;;;;;80.80;52.42;;;;;;;;;;4994199;28;20027;-72
2021/04/04 09:44:30;;;;;;;74.53;46.67;;;;;;;;;;4994710;28;20015;-72
2021/04/04 09:47:00;;;;;;;85.90;55.47;;;;;;;;;;4990348;28;20022;-72
2021/04/04 09:49:37;;;;;;;36.60;28.85;;;;;;;;;;4985599;28;20034;-73
2021/04/04 09:52:18;;;;;;;24.65;18.30;;;;;;;;;;4994112;28;20015;-73
2021/04/04 09:55:08;;;;;;;24.10;20.35;;;;;;;;;;4993787;28;20037;-70
2021/04/04 09:57:44;;;;;;;18.30;15.50;;;;;;;;;;4982470;28;20035;-72
2021/04/04 10:00:18;;;;;;;23.40;17.85;;;;;;;;;;4993757;28;20026;-73
2021/04/04 10:02:44;;;;;;;28.83;23.55;;;;;;;;;;4992585;28;20112;-73
2021/04/04 10:05:10;;;;;;;21.55;17.50;;;282.00;1715.20;;;;;;4973703;28;20449;-71
2021/04/04 10:07:36;;;;;;;27.65;22.27;;;281.60;1715.20;;;;;;4993544;28;20050;-71
2021/04/04 10:10:04;;;;;;;26.88;21.00;;;281.80;1715.20;;;;;;4993473;28;20050;-69
2021/04/04 10:12:30;;;;;;;24.23;18.67;;;281.90;1715.20;;;;;;4993663;28;20113;-68
2021/04/04 10:15:04;;;;;;;30.98;19.58;;;282.10;1689.60;;;;;;4991145;28;20113;-66
2021/04/04 10:17:29;;;;;;;29.85;19.15;;;282.20;1689.60;;;;;;4987624;28;20390;-67
2021/04/04 10:19:57;;;;;;;34.90;19.58;;;282.30;1689.60;;;;;;4993989;28;20034;-69
2021/04/04 10:22:23;;;;;;;41.75;27.02;;;282.50;1664.00;;;;;;4993196;28;20061;-68
2021/04/04 10:24:50;;;;;;;27.13;20.50;;;307.30;1664.00;;;;;;4993693;28;20077;-72
2021/04/04 10:27:22;;;;;;;24.83;17.35;;;282.50;1612.80;;;;;;4993312;28;20022;-72
2021/04/04 10:29:49;;;;;;;21.25;15.45;;;282.20;1664.00;;;;;;4991613;28;20398;-71
2021/04/04 10:32:25;;;;;;;43.83;23.60;;;307.30;1638.40;;;;;;4993329;28;20377;-71
2021/04/04 10:34:51;;;;;;;28.02;21.63;;;332.80;1612.80;;;;;;4992329;28;20417;-69
2021/04/04 10:37:28;;;;;;;24.95;14.68;;;358.80;1433.60;;;;;;4993201;28;20105;-70
2021/04/04 10:40:03;;;;;;;25.55;17.67;;;359.30;1356.80;;;;;;4991636;28;20026;-69
2021/04/04 10:42:30;;;;;;;19.40;14.35;;;358.50;1382.40;;;;;;4992865;28;20030;-70
2021/04/04 10:45:15;;;;;;;21.30;14.25;;;359.30;1280.00;;;;;;4993666;28;20454;-70
2021/04/04 10:47:42;;;;;;;28.50;17.33;;;359.20;1356.80;;;;;;4993484;28;20105;-67
2021/04/04 10:50:14;;;;;;;16.08;12.93;;;410.30;1177.60;;;;;;4988285;28;20022;-68
2021/04/04 10:52:41;;;;;;;15.15;11.63;;;384.90;1203.20;;;;;;4974594;28;20015;-64
2021/04/04 10:55:08;;;;;;;17.70;12.68;;;409.60;1228.80;;;;;;4975143;28;20536;-67
2021/04/04 10:57:34;;;;;;;12.77;9.88;;;410.00;1203.20;;;;;;4976126;28;20030;-70
2021/04/04 11:00:03;;;;;;;14.63;11.40;;;384.70;1203.20;;;;;;4992972;28;20042;-68
2021/04/04 11:02:31;;;;;;;40.28;19.50;;;384.00;1280.00;;;;;;4992353;28;20440;-69
2021/04/04 11:04:58;;;;;;;23.60;16.42;;;359.00;1305.60;;;;;;4985900;28;20079;-69
2021/04/04 11:07:24;;;;;;;23.33;17.27;;;358.40;1638.40;;;;;;4993253;28;20026;-70
2021/04/04 11:09:50;;;;;;;25.30;17.33;;;333.60;1408.00;;;;;;4993017;28;20109;-70
2021/04/04 11:12:16;;;;;;;23.92;16.90;;;333.20;1459.20;;;;;;4993131;28;20137;-69
2021/04/04 11:14:49;;;;;;;28.42;19.23;;;;;;;;;;4974900;28;20053;-69
2021/04/04 11:17:20;;;;;;;38.25;27.63;;;332.90;1484.80;;;;;;4992774;28;20041;-69
2021/04/04 11:19:49;;;;;;;35.78;23.30;;;308.10;1459.20;;;;;;4992887;28;20022;-69
2021/04/04 11:22:21;;;;;;;36.20;23.30;;;308.00;1484.80;;;;;;4992609;28;20021;-69
2021/04/04 11:25:06;;;;;;;42.60;26.88;;;307.80;1484.80;;;;;;4982325;28;20132;-70
2021/04/04 11:27:39;;;;;;;32.22;18.63;;;332.80;1484.80;;;;;;4992597;28;20156;-69
2021/04/04 11:30:07;;;;;;;31.33;17.98;;;332.90;1484.80;;;;;;4992524;28;20019;-68
2021/04/04 11:32:32;;;;;;;31.10;17.73;;;332.90;1484.80;;;;;;4992683;28;20018;-70
2021/04/04 11:35:03;;;;;;;31.60;17.65;;;333.20;1459.20;;;;;;4992544;28;20040;-69
2021/04/04 11:37:29;;;;;;;22.08;16.83;;;333.20;1459.20;;;;;;4992819;28;20034;-69
2021/04/04 11:40:10;;;;;;;32.22;22.10;;;333.20;1459.20;;;;;;4992794;28;20034;-69
2021/04/04 11:42:35;;;;;;;30.17;19.97;;;333.20;1484.80;;;;;;4987266;28;20026;-69
2021/04/04 11:45:01;;;;;;;48.10;27.02;;;;;;;;;;4975368;28;20504;-69
2021/04/04 11:47:28;;;;;;;39.20;21.73;;;;;;;;;;4992576;28;20085;-70
2021/04/04 11:49:55;;;;;;;60.97;32.97;;;332.90;1459.20;;;;;;4992521;28;20462;-69
2021/04/04 11:52:23;;;;;;;32.70;18.88;;;332.90;1459.20;;;;;;4992856;28;20117;-69
2021/04/04 11:54:55;;;;;;;40.70;19.63;;;333.30;1408.00;;;;;;4992749;28;20034;-69
2021/04/04 11:57:30;;;;;;;31.95;20.45;;;333.20;1408.00;;;;;;4992586;28;20014;-68
2021/04/04 12:00:09;;;;;;;20.70;16.35;;;333.30;1382.40;;;;;;4992665;28;20080;-68
2021/04/04 12:02:36;;;;;;;20.10;13.73;;;333.30;1331.20;;;;;;4992911;28;20385;-69
2021/04/04 12:05:11;;;;;;;21.10;18.27;;;333.60;1331.20;;;;;;4992528;28;20022;-69
2021/04/04 12:07:43;;;;;;;20.45;13.73;;;358.50;1228.80;;;;;;4992908;28;20033;-68
2021/04/04 12:10:11;;;;;;;25.30;16.08;;;333.60;1356.80;;;;;;4992654;28;20114;-68
2021/04/04 12:12:37;;;;;;;37.00;15.50;;;333.50;1356.80;;;;;;4992406;28;20027;-69
2021/04/04 12:15:04;;;;;;;20.73;12.30;;;333.30;1382.40;;;;;;4992779;28;20389;-69
2021/04/04 12:17:31;;;;;;;21.83;13.02;;;333.60;1382.40;;;;;;4992157;28;20081;-68
2021/04/04 12:19:58;;;;;;;17.63;11.65;;;333.70;1356.80;;;;;;4990862;28;20050;-69
2021/04/04 12:22:34;;;;;;;15.05;11.35;;;333.70;1356.80;;;;;;4992463;28;20029;-69
2021/04/04 12:25:00;;;;;;;46.70;22.98;;;333.70;1356.80;;;;;;4992561;28;20362;-69
2021/04/04 12:27:27;;;;;;;34.33;18.90;;;333.70;1331.20;;;;;;4995891;28;20037;-69
2021/04/04 12:29:54;;;;;;;32.92;17.73;;;358.40;1382.40;;;;;;4996301;28;20408;-69
2021/04/04 12:32:22;;;;;;;22.58;14.10;;;358.50;1356.80;;;;;;4996176;28;20022;-69
2021/04/04 12:34:51;;;;;;;19.90;10.70;;;358.60;1331.20;;;;;;4995869;28;20030;-69
2021/04/04 12:37:20;;;;;;;19.00;12.63;;;359.20;1254.40;;;;;;4982029;28;20063;-68
2021/04/04 12:39:46;;;;;;;18.65;13.90;;;384.30;1203.20;;;;;;4995257;28;20031;-67
2021/04/04 12:42:17;;;;;;;21.73;15.98;;;384.00;1228.80;;;;;;4994503;28;20038;-68
2021/04/04 12:44:46;;;;;;;24.13;16.30;;;384.60;1177.60;;;;;;4991642;28;20030;-68
2021/04/04 12:47:21;;;;;;;18.02;10.98;;;384.90;1152.00;;;;;;4981658;28;20137;-68
2021/04/04 12:50:03;;;;;;;13.50;7.95;;;410.00;1100.80;;;;;;4993778;28;20489;-69
2021/04/04 12:52:37;;;;;;;10.10;7.72;;;410.50;1075.20;;;;;;4994581;28;20072;-69
2021/04/04 12:55:32;;;;;;;24.27;14.32;;;410.40;1049.60;;;;;;4994718;28;20042;-68
2021/04/04 12:58:03;;;;;;;15.15;11.15;;;460.80;1075.20;;;;;;4993146;28;20378;-68